Hovedside
METAR-TAF:

METAR-TAF

Lufthavner :

Pskov, Russland

breddegrad: 57-47-06N, lengdegrad: 028-23-54E, høyde over havet: 47 m

Gjeldene værobservasjon

Denne rapporten ble laget for 1 time og 47 minutter siden, klokken 17:00 UTC
Vind 4 kt fra Øst-nordøst
Temperatur -1°C
Luftfuktighet 93%
Trykk 1037 hPa
Sikt: 8000 m

METAR: ULOO 191700Z AUTO 06002MPS020V110 8000 // ///018/// M01/M02 Q1037 RMK QFE773

Tid: 21:47 (18:47 UTC)

Varsel

Denne rapporten ble laget for 7 timer og 50 minutter siden, klokken 10:57 UTC
Varsel gyldig fra 19. klokken 12 UTC til 19. klokken 21 UTC
Vind 6 kt fra Nord-nordøst
Sikt: 3100 m
Brutte skyer i en høyde av 1000 ft
Overskyet i en høyde av 2000 ft
lett regn, snø
Midlertidig
fra 19. klokken 12 UTC til 19. klokken 21 UTC
Sikt: 1500 m
Brutte skyer i en høyde av 600 ft
Brutte skyer i en høyde av 1500 ft, Bygeskyer.
lette snøbyger, regn, dis

TAF: ULOO 191057Z 1912/1921 03003MPS 3100 -RASN BKN010 OVC020 TEMPO 1912/1921 1500 -SHSNRA BR BKN006 BKN015CB

Værobservasjoner og værvarsel for over 4000 flyplasser (METAR- og TAF-rapporter).

Tilgjengelige stasjoner er representert av de røde og gule prikkene på kartet.

Hold musepekeren over prikken for å se navnet på stasjonen.

Klikk så for å se værobservasjoner og -varsler.

For å forandre kartet kan du klikke på den grønne knappen med svart kryss for å zoome inn, på den grønne knappen med strek for å zoome ut, eller på de grønne pilene for å se tilstøtende kart.


METAR-TAF: